sensor_id;sensor_type;location;lat;lon;timestamp;pressure;altitude;pressure_sealevel;temperature;humidity
7018;BME280;3549;42.162;24.726;2022-09-09T00:00:54;99349.16;;;17.71;100.00
7018;BME280;3549;42.162;24.726;2022-09-09T00:03:25;99344.78;;;17.62;100.00
7018;BME280;3549;42.162;24.726;2022-09-09T00:11:19;99343.13;;;17.65;100.00
7018;BME280;3549;42.162;24.726;2022-09-09T00:13:48;99425.63;;;18.03;100.00
7018;BME280;3549;42.162;24.726;2022-09-09T00:16:21;99436.06;;;18.18;100.00
7018;BME280;3549;42.162;24.726;2022-09-09T00:21:16;99393.03;;;17.93;100.00
7018;BME280;3549;42.162;24.726;2022-09-09T00:23:51;99429.06;;;18.05;100.00
7018;BME280;3549;42.162;24.726;2022-09-09T00:26:31;99429.69;;;17.89;100.00
7018;BME280;3549;42.162;24.726;2022-09-09T00:29:09;98899.41;;;14.63;100.00
7018;BME280;3549;42.162;24.726;2022-09-09T00:31:39;99442.59;;;17.97;100.00
7018;BME280;3549;42.162;24.726;2022-09-09T00:34:17;99436.41;;;17.83;100.00
7018;BME280;3549;42.162;24.726;2022-09-09T00:36:45;99473.19;;;17.86;100.00
7018;BME280;3549;42.162;24.726;2022-09-09T00:39:37;99449.34;;;17.90;100.00
7018;BME280;3549;42.162;24.726;2022-09-09T00:42:19;99430.38;;;17.79;100.00
7018;BME280;3549;42.162;24.726;2022-09-09T00:55:25;99443.56;;;18.02;100.00
7018;BME280;3549;42.162;24.726;2022-09-09T00:57:54;99090.56;;;15.92;100.00
7018;BME280;3549;42.162;24.726;2022-09-09T01:00:29;99450.22;;;17.92;100.00
7018;BME280;3549;42.162;24.726;2022-09-09T01:05:33;99444.91;;;17.80;100.00
7018;BME280;3549;42.162;24.726;2022-09-09T01:08:02;99445.88;;;17.88;100.00
7018;BME280;3549;42.162;24.726;2022-09-09T01:10:40;99371.66;;;17.39;100.00
7018;BME280;3549;42.162;24.726;2022-09-09T01:13:15;99443.31;;;17.87;100.00
7018;BME280;3549;42.162;24.726;2022-09-09T01:15:45;99271.91;;;16.86;100.00
7018;BME280;3549;42.162;24.726;2022-09-09T01:18:14;99439.88;;;17.85;100.00
7018;BME280;3549;42.162;24.726;2022-09-09T01:28:29;99442.00;;;17.59;100.00
7018;BME280;3549;42.162;24.726;2022-09-09T01:30:56;99407.25;;;17.24;100.00
7018;BME280;3549;42.162;24.726;2022-09-09T01:33:22;99447.84;;;17.52;100.00
7018;BME280;3549;42.162;24.726;2022-09-09T01:36:10;99325.41;;;16.76;100.00
7018;BME280;3549;42.162;24.726;2022-09-09T01:38:39;99310.88;;;16.73;100.00
7018;BME280;3549;42.162;24.726;2022-09-09T01:41:04;99430.75;;;17.49;100.00
7018;BME280;3549;42.162;24.726;2022-09-09T01:43:30;99424.66;;;17.43;100.00
7018;BME280;3549;42.162;24.726;2022-09-09T01:45:59;99444.63;;;17.62;100.00
7018;BME280;3549;42.162;24.726;2022-09-09T01:48:25;99192.13;;;16.07;100.00
7018;BME280;3549;42.162;24.726;2022-09-09T01:50:51;99433.41;;;17.54;100.00
7018;BME280;3549;42.162;24.726;2022-09-09T01:53:18;99379.88;;;17.20;100.00
7018;BME280;3549;42.162;24.726;2022-09-09T02:04:38;99289.91;;;16.46;100.00
7018;BME280;3549;42.162;24.726;2022-09-09T02:07:14;99432.47;;;17.04;100.00
7018;BME280;3549;42.162;24.726;2022-09-09T02:09:44;99302.56;;;16.40;100.00
7018;BME280;3549;42.162;24.726;2022-09-09T02:12:14;99131.22;;;15.41;100.00
7018;BME280;3549;42.162;24.726;2022-09-09T02:14:50;99443.84;;;17.20;100.00
7018;BME280;3549;42.162;24.726;2022-09-09T02:17:24;99349.78;;;16.57;100.00
7018;BME280;3549;42.162;24.726;2022-09-09T02:20:00;99443.16;;;17.28;100.00
7018;BME280;3549;42.162;24.726;2022-09-09T02:22:29;99272.63;;;16.33;100.00
7018;BME280;3549;42.162;24.726;2022-09-09T02:24:57;99344.28;;;16.81;100.00
7018;BME280;3549;42.162;24.726;2022-09-09T02:27:25;99425.28;;;17.31;100.00
7018;BME280;3549;42.162;24.726;2022-09-09T02:29:51;99379.53;;;16.98;100.00
7018;BME280;3549;42.162;24.726;2022-09-09T02:32:21;99131.19;;;15.38;100.00
7018;BME280;3549;42.162;24.726;2022-09-09T02:34:50;99226.22;;;16.10;100.00
7018;BME280;3549;42.162;24.726;2022-09-09T02:37:19;99438.84;;;17.24;100.00
7018;BME280;3549;42.162;24.726;2022-09-09T02:39:46;99436.28;;;17.26;100.00
7018;BME280;3549;42.162;24.726;2022-09-09T02:42:12;99218.47;;;16.06;100.00
7018;BME280;3549;42.162;24.726;2022-09-09T02:44:40;99441.75;;;17.44;100.00
7018;BME280;3549;42.162;24.726;2022-09-09T02:57:49;99396.63;;;17.01;100.00
7018;BME280;3549;42.162;24.726;2022-09-09T03:00:22;99432.16;;;17.32;100.00
7018;BME280;3549;42.162;24.726;2022-09-09T03:02:49;99208.19;;;16.03;100.00
7018;BME280;3549;42.162;24.726;2022-09-09T03:05:15;99462.22;;;17.44;100.00
7018;BME280;3549;42.162;24.726;2022-09-09T03:07:41;99341.47;;;16.67;100.00
7018;BME280;3549;42.162;24.726;2022-09-09T03:10:07;99151.09;;;15.54;100.00
7018;BME280;3549;42.162;24.726;2022-09-09T03:12:33;99445.88;;;17.39;100.00
7018;BME280;3549;42.162;24.726;2022-09-09T03:14:58;99222.44;;;15.90;100.00
7018;BME280;3549;42.162;24.726;2022-09-09T03:17:24;99317.00;;;16.38;100.00
7018;BME280;3549;42.162;24.726;2022-09-09T03:19:50;99335.84;;;16.43;100.00
7018;BME280;3549;42.162;24.726;2022-09-09T03:22:17;99335.84;;;16.43;100.00
7018;BME280;3549;42.162;24.726;2022-09-09T03:24:42;99342.56;;;16.38;100.00
7018;BME280;3549;42.162;24.726;2022-09-09T03:27:08;99470.78;;;17.01;100.00
7018;BME280;3549;42.162;24.726;2022-09-09T03:29:33;99156.06;;;15.08;100.00
7018;BME280;3549;42.162;24.726;2022-09-09T03:31:59;99467.91;;;16.84;100.00
7018;BME280;3549;42.162;24.726;2022-09-09T03:34:24;99155.63;;;14.90;100.00
7018;BME280;3549;42.162;24.726;2022-09-09T03:36:50;99356.00;;;15.87;100.00
7018;BME280;3549;42.162;24.726;2022-09-09T03:39:15;99411.97;;;16.19;100.00
7018;BME280;3549;42.162;24.726;2022-09-09T03:41:41;99309.63;;;15.69;100.00
7018;BME280;3549;42.162;24.726;2022-09-09T03:44:06;99294.00;;;15.56;100.00
7018;BME280;3549;42.162;24.726;2022-09-09T03:46:31;99476.28;;;16.77;100.00
7018;BME280;3549;42.162;24.726;2022-09-09T03:48:57;99473.75;;;16.79;100.00
7018;BME280;3549;42.162;24.726;2022-09-09T03:51:23;98954.09;;;13.67;100.00
7018;BME280;3549;42.162;24.726;2022-09-09T03:53:48;99400.50;;;16.39;100.00
7018;BME280;3549;42.162;24.726;2022-09-09T03:56:14;99406.53;;;16.42;100.00
7018;BME280;3549;42.162;24.726;2022-09-09T03:58:39;99132.44;;;14.79;100.00
7018;BME280;3549;42.162;24.726;2022-09-09T04:01:14;99480.75;;;16.87;100.00
7018;BME280;3549;42.162;24.726;2022-09-09T04:03:40;99204.34;;;15.02;100.00
7018;BME280;3549;42.162;24.726;2022-09-09T04:06:08;99497.09;;;16.53;100.00
7018;BME280;3549;42.162;24.726;2022-09-09T04:08:34;99475.91;;;16.59;100.00
7018;BME280;3549;42.162;24.726;2022-09-09T04:11:01;99407.00;;;16.25;100.00
7018;BME280;3549;42.162;24.726;2022-09-09T04:13:32;99287.97;;;15.52;100.00
7018;BME280;3549;42.162;24.726;2022-09-09T04:16:00;99473.69;;;16.74;100.00
7018;BME280;3549;42.162;24.726;2022-09-09T04:18:26;99373.88;;;16.28;100.00
7018;BME280;3549;42.162;24.726;2022-09-09T04:20:53;99381.66;;;16.34;100.00
7018;BME280;3549;42.162;24.726;2022-09-09T04:23:19;99417.97;;;16.58;100.00
7018;BME280;3549;42.162;24.726;2022-09-09T04:25:50;99244.13;;;15.70;100.00
7018;BME280;3549;42.162;24.726;2022-09-09T04:28:18;99460.56;;;17.01;100.00
7018;BME280;3549;42.162;24.726;2022-09-09T04:30:44;99291.78;;;16.11;100.00
7018;BME280;3549;42.162;24.726;2022-09-09T04:33:10;99454.81;;;17.13;100.00
7018;BME280;3549;42.162;24.726;2022-09-09T04:35:36;99465.91;;;17.13;100.00
7018;BME280;3549;42.162;24.726;2022-09-09T04:38:03;99351.22;;;16.46;100.00
7018;BME280;3549;42.162;24.726;2022-09-09T04:40:30;99474.50;;;17.17;100.00
7018;BME280;3549;42.162;24.726;2022-09-09T04:43:03;99479.53;;;17.12;100.00
7018;BME280;3549;42.162;24.726;2022-09-09T04:45:31;99419.78;;;16.65;100.00
7018;BME280;3549;42.162;24.726;2022-09-09T04:47:58;99162.78;;;15.06;100.00
7018;BME280;3549;42.162;24.726;2022-09-09T04:50:24;99494.75;;;17.06;100.00
7018;BME280;3549;42.162;24.726;2022-09-09T04:52:50;99345.94;;;15.95;100.00
7018;BME280;3549;42.162;24.726;2022-09-09T04:55:15;99490.00;;;16.81;100.00
7018;BME280;3549;42.162;24.726;2022-09-09T04:57:40;99376.38;;;16.26;100.00
7018;BME280;3549;42.162;24.726;2022-09-09T05:00:07;99419.00;;;16.29;100.00
7018;BME280;3549;42.162;24.726;2022-09-09T05:02:33;99254.53;;;15.40;100.00
7018;BME280;3549;42.162;24.726;2022-09-09T05:05:02;99480.00;;;16.91;100.00
7018;BME280;3549;42.162;24.726;2022-09-09T05:07:27;99494.16;;;16.76;100.00
7018;BME280;3549;42.162;24.726;2022-09-09T05:09:54;99329.81;;;15.60;100.00
7018;BME280;3549;42.162;24.726;2022-09-09T05:12:19;99488.94;;;16.70;100.00
7018;BME280;3549;42.162;24.726;2022-09-09T05:14:44;99315.63;;;15.35;100.00
7018;BME280;3549;42.162;24.726;2022-09-09T05:17:10;99355.09;;;15.48;100.00
7018;BME280;3549;42.162;24.726;2022-09-09T05:19:36;99487.84;;;16.60;100.00
7018;BME280;3549;42.162;24.726;2022-09-09T05:22:02;99353.97;;;15.73;100.00
7018;BME280;3549;42.162;24.726;2022-09-09T05:24:28;99346.88;;;15.99;100.00
7018;BME280;3549;42.162;24.726;2022-09-09T05:26:54;99164.13;;;14.89;100.00
7018;BME280;3549;42.162;24.726;2022-09-09T05:29:23;99105.47;;;14.50;100.00
7018;BME280;3549;42.162;24.726;2022-09-09T05:31:48;99414.09;;;16.38;100.00
7018;BME280;3549;42.162;24.726;2022-09-09T05:34:13;99365.13;;;16.17;100.00
7018;BME280;3549;42.162;24.726;2022-09-09T05:36:39;99122.56;;;14.93;100.00
7018;BME280;3549;42.162;24.726;2022-09-09T05:39:04;99324.13;;;16.11;100.00
7018;BME280;3549;42.162;24.726;2022-09-09T05:41:30;99467.91;;;17.29;100.00
7018;BME280;3549;42.162;24.726;2022-09-09T05:43:57;98896.88;;;13.86;100.00
7018;BME280;3549;42.162;24.726;2022-09-09T05:46:24;99357.63;;;16.66;100.00
7018;BME280;3549;42.162;24.726;2022-09-09T05:48:53;99416.44;;;17.13;98.68
7018;BME280;3549;42.162;24.726;2022-09-09T05:51:21;99480.41;;;17.59;97.52
7018;BME280;3549;42.162;24.726;2022-09-09T05:53:48;99499.31;;;17.21;99.55
7018;BME280;3549;42.162;24.726;2022-09-09T05:56:15;99358.09;;;16.48;98.11
7018;BME280;3549;42.162;24.726;2022-09-09T05:58:41;99493.63;;;17.35;97.62
7018;BME280;3549;42.162;24.726;2022-09-09T06:01:26;99459.50;;;17.36;96.24
7018;BME280;3549;42.162;24.726;2022-09-09T06:03:53;99484.34;;;17.90;94.33
7018;BME280;3549;42.162;24.726;2022-09-09T06:06:20;99477.63;;;17.98;93.19
7018;BME280;3549;42.162;24.726;2022-09-09T06:08:46;99249.94;;;16.97;91.51
7018;BME280;3549;42.162;24.726;2022-09-09T06:11:21;99471.72;;;18.60;90.21
7018;BME280;3549;42.162;24.726;2022-09-09T06:13:47;99182.09;;;17.24;88.04
7018;BME280;3549;42.162;24.726;2022-09-09T06:16:15;99284.69;;;17.99;87.35
7018;BME280;3549;42.162;24.726;2022-09-09T06:18:42;99472.94;;;18.90;88.09
7018;BME280;3549;42.162;24.726;2022-09-09T06:21:21;99473.81;;;18.92;87.93
7018;BME280;3549;42.162;24.726;2022-09-09T06:23:47;99431.56;;;18.61;88.82
7018;BME280;3549;42.162;24.726;2022-09-09T06:26:17;99429.44;;;19.02;85.92
7018;BME280;3549;42.162;24.726;2022-09-09T06:28:44;99324.03;;;18.79;83.33
7018;BME280;3549;42.162;24.726;2022-09-09T06:31:12;99473.41;;;19.35;85.17
7018;BME280;3549;42.162;24.726;2022-09-09T06:33:39;99483.66;;;19.30;85.59
7018;BME280;3549;42.162;24.726;2022-09-09T06:36:11;99341.19;;;18.81;83.48
7018;BME280;3549;42.162;24.726;2022-09-09T06:38:37;99489.97;;;19.61;84.27
7018;BME280;3549;42.162;24.726;2022-09-09T06:41:03;99316.41;;;18.88;82.34
7018;BME280;3549;42.162;24.726;2022-09-09T06:43:29;99491.25;;;20.13;81.39
7018;BME280;3549;42.162;24.726;2022-09-09T06:45:55;99484.19;;;19.85;81.57
7018;BME280;3549;42.162;24.726;2022-09-09T06:48:21;99499.16;;;19.39;84.75
7018;BME280;3549;42.162;24.726;2022-09-09T06:50:46;99140.13;;;17.74;82.91
7018;BME280;3549;42.162;24.726;2022-09-09T06:53:12;99506.56;;;20.02;81.30
7018;BME280;3549;42.162;24.726;2022-09-09T06:55:37;99361.94;;;19.10;81.59
7018;BME280;3549;42.162;24.726;2022-09-09T06:58:08;99346.38;;;18.89;82.98
7018;BME280;3549;42.162;24.726;2022-09-09T07:00:33;99489.56;;;20.18;79.80
7018;BME280;3549;42.162;24.726;2022-09-09T07:02:59;99487.63;;;19.91;80.75
7018;BME280;3549;42.162;24.726;2022-09-09T07:05:24;99419.06;;;19.84;79.40
7018;BME280;3549;42.162;24.726;2022-09-09T07:07:51;99331.72;;;19.89;73.96
7018;BME280;3549;42.162;24.726;2022-09-09T07:10:17;99318.25;;;20.38;71.33
7018;BME280;3549;42.162;24.726;2022-09-09T07:12:42;99174.94;;;19.71;68.93
7018;BME280;3549;42.162;24.726;2022-09-09T07:15:08;99382.75;;;21.02;69.18
7018;BME280;3549;42.162;24.726;2022-09-09T07:17:34;99359.63;;;21.15;67.84
7018;BME280;3549;42.162;24.726;2022-09-09T07:20:01;99295.25;;;20.93;67.36
7018;BME280;3549;42.162;24.726;2022-09-09T07:22:28;99493.63;;;21.85;68.15
7018;BME280;3549;42.162;24.726;2022-09-09T07:24:53;99491.03;;;22.29;65.48
7018;BME280;3549;42.162;24.726;2022-09-09T07:27:19;99341.56;;;21.77;64.21
7018;BME280;3549;42.162;24.726;2022-09-09T07:29:44;99493.47;;;22.83;63.13
7018;BME280;3549;42.162;24.726;2022-09-09T07:32:10;99495.03;;;23.18;61.68
7018;BME280;3549;42.162;24.726;2022-09-09T07:34:36;99495.03;;;23.18;61.11
7018;BME280;3549;42.162;24.726;2022-09-09T07:37:02;99270.34;;;21.37;62.29
7018;BME280;3549;42.162;24.726;2022-09-09T07:39:27;99497.75;;;22.83;62.50
7018;BME280;3549;42.162;24.726;2022-09-09T07:41:53;99404.00;;;22.79;60.49
7018;BME280;3549;42.162;24.726;2022-09-09T07:44:24;99491.31;;;23.64;59.41
7018;BME280;3549;42.162;24.726;2022-09-09T07:46:50;99165.38;;;21.94;58.63
7018;BME280;3549;42.162;24.726;2022-09-09T07:49:16;99471.25;;;23.95;57.88
7018;BME280;3549;42.162;24.726;2022-09-09T07:51:46;99015.34;;;21.40;56.95
7018;BME280;3549;42.162;24.726;2022-09-09T07:54:14;99494.88;;;24.50;56.64
7018;BME280;3549;42.162;24.726;2022-09-09T07:56:40;99488.59;;;24.72;55.43
7018;BME280;3549;42.162;24.726;2022-09-09T07:59:06;99487.56;;;24.87;54.71
7018;BME280;3549;42.162;24.726;2022-09-09T08:01:35;99013.09;;;22.15;54.10
7018;BME280;3549;42.162;24.726;2022-09-09T08:04:05;99315.03;;;24.10;53.29
7018;BME280;3549;42.162;24.726;2022-09-09T08:06:36;99476.97;;;25.05;52.97
7018;BME280;3549;42.162;24.726;2022-09-09T08:09:02;99475.66;;;25.38;52.39
7018;BME280;3549;42.162;24.726;2022-09-09T08:11:29;99419.84;;;24.47;53.88
7018;BME280;3549;42.162;24.726;2022-09-09T08:13:55;98973.47;;;22.26;51.98
7018;BME280;3549;42.162;24.726;2022-09-09T08:16:29;99474.47;;;25.60;50.85
7018;BME280;3549;42.162;24.726;2022-09-09T08:18:56;99257.28;;;24.09;51.48
7018;BME280;3549;42.162;24.726;2022-09-09T08:21:24;99476.91;;;25.69;50.67
7018;BME280;3549;42.162;24.726;2022-09-09T08:23:52;99433.00;;;25.58;50.56
7018;BME280;3549;42.162;24.726;2022-09-09T08:26:23;99474.56;;;25.54;50.79
7018;BME280;3549;42.162;24.726;2022-09-09T08:28:54;99468.34;;;25.64;51.06
7018;BME280;3549;42.162;24.726;2022-09-09T08:31:26;99378.00;;;25.89;49.47
7018;BME280;3549;42.162;24.726;2022-09-09T08:33:53;99431.94;;;26.62;47.87
7018;BME280;3549;42.162;24.726;2022-09-09T08:36:22;99455.44;;;26.11;49.15
7018;BME280;3549;42.162;24.726;2022-09-09T08:38:50;99468.09;;;26.29;49.06
7018;BME280;3549;42.162;24.726;2022-09-09T08:50:13;99286.00;;;26.05;47.75
7018;BME280;3549;42.162;24.726;2022-09-09T08:52:59;99452.41;;;27.57;46.40
7018;BME280;3549;42.162;24.726;2022-09-09T08:55:50;99458.25;;;27.29;46.82
7018;BME280;3549;42.162;24.726;2022-09-09T08:58:21;99443.44;;;27.31;46.30
7018;BME280;3549;42.162;24.726;2022-09-09T09:05:57;99340.09;;;27.06;45.69
7018;BME280;3549;42.162;24.726;2022-09-09T09:08:48;99405.00;;;27.45;45.97
7018;BME280;3549;42.162;24.726;2022-09-09T09:11:18;99043.50;;;25.43;45.26
7018;BME280;3549;42.162;24.726;2022-09-09T09:13:55;99215.78;;;26.14;45.78
7018;BME280;3549;42.162;24.726;2022-09-09T09:16:34;99432.25;;;27.29;46.96
7018;BME280;3549;42.162;24.726;2022-09-09T09:19:02;99440.63;;;27.77;45.56
7018;BME280;3549;42.162;24.726;2022-09-09T09:24:43;99382.81;;;27.98;43.43
7018;BME280;3549;42.162;24.726;2022-09-09T09:27:17;99331.25;;;27.80;43.47
7018;BME280;3549;42.162;24.726;2022-09-09T09:29:45;99423.63;;;28.90;42.68
7018;BME280;3549;42.162;24.726;2022-09-09T09:32:18;99411.09;;;28.74;43.16
7018;BME280;3549;42.162;24.726;2022-09-09T09:34:53;99360.22;;;28.60;42.09
7018;BME280;3549;42.162;24.726;2022-09-09T09:37:32;99424.50;;;28.91;42.96
7018;BME280;3549;42.162;24.726;2022-09-09T09:42:35;99376.94;;;28.83;42.24
7018;BME280;3549;42.162;24.726;2022-09-09T09:45:13;99394.06;;;28.91;42.73
7018;BME280;3549;42.162;24.726;2022-09-09T09:47:43;99412.00;;;28.42;43.27
7018;BME280;3549;42.162;24.726;2022-09-09T09:50:17;99395.41;;;28.15;44.03
7018;BME280;3549;42.162;24.726;2022-09-09T09:52:53;99332.69;;;27.60;44.44
7018;BME280;3549;42.162;24.726;2022-09-09T09:55:19;99390.94;;;28.80;43.09
7018;BME280;3549;42.162;24.726;2022-09-09T09:57:45;99400.31;;;28.86;43.53
7018;BME280;3549;42.162;24.726;2022-09-09T10:00:18;99403.72;;;28.88;42.99
7018;BME280;3549;42.162;24.726;2022-09-09T10:02:45;99393.97;;;28.66;43.82
7018;BME280;3549;42.162;24.726;2022-09-09T10:05:21;99396.94;;;28.82;43.55
7018;BME280;3549;42.162;24.726;2022-09-09T10:07:59;99335.63;;;28.41;43.60
7018;BME280;3549;42.162;24.726;2022-09-09T10:10:35;99144.72;;;27.53;43.42
7018;BME280;3549;42.162;24.726;2022-09-09T10:26:37;99378.81;;;29.61;41.87
7018;BME280;3549;42.162;24.726;2022-09-09T10:29:15;99376.13;;;30.13;41.60
7018;BME280;3549;42.162;24.726;2022-09-09T10:35:10;99282.56;;;28.99;42.64
7018;BME280;3549;42.162;24.726;2022-09-09T10:40:22;99368.78;;;29.21;43.72
7018;BME280;3549;42.162;24.726;2022-09-09T10:42:53;99337.56;;;28.92;43.39
7018;BME280;3549;42.162;24.726;2022-09-09T10:56:10;99356.69;;;29.46;43.02
7018;BME280;3549;42.162;24.726;2022-09-09T11:01:31;99344.13;;;29.57;42.83
7018;BME280;3549;42.162;24.726;2022-09-09T11:04:10;99350.72;;;29.67;42.84
7018;BME280;3549;42.162;24.726;2022-09-09T11:06:41;99293.59;;;29.85;41.94
7018;BME280;3549;42.162;24.726;2022-09-09T11:09:16;99163.06;;;28.61;42.23
7018;BME280;3549;42.162;24.726;2022-09-09T11:11:51;99242.50;;;29.02;43.01
7018;BME280;3549;42.162;24.726;2022-09-09T11:17:01;99245.53;;;29.65;41.88
7018;BME280;3549;42.162;24.726;2022-09-09T11:19:39;99089.94;;;28.92;41.71
7018;BME280;3549;42.162;24.726;2022-09-09T11:25:05;99310.63;;;29.95;42.13
7018;BME280;3549;42.162;24.726;2022-09-09T11:30:21;99309.22;;;30.09;42.47
7018;BME280;3549;42.162;24.726;2022-09-09T11:38:47;99304.44;;;30.20;42.35
7018;BME280;3549;42.162;24.726;2022-09-09T11:41:15;99271.41;;;30.43;41.61
7018;BME280;3549;42.162;24.726;2022-09-09T11:43:43;99296.91;;;31.03;39.86
7018;BME280;3549;42.162;24.726;2022-09-09T11:46:11;99318.03;;;31.60;39.39
7018;BME280;3549;42.162;24.726;2022-09-09T11:48:40;99316.88;;;31.67;38.90
7018;BME280;3549;42.162;24.726;2022-09-09T11:51:13;99316.69;;;31.90;38.60
7018;BME280;3549;42.162;24.726;2022-09-09T11:56:24;99205.13;;;31.68;38.27
7018;BME280;3549;42.162;24.726;2022-09-09T11:58:57;99284.81;;;32.20;38.00
7018;BME280;3549;42.162;24.726;2022-09-09T12:06:53;99291.19;;;32.51;37.37
7018;BME280;3549;42.162;24.726;2022-09-09T12:11:52;99246.50;;;33.07;36.48
7018;BME280;3549;42.162;24.726;2022-09-09T12:14:37;99276.06;;;32.21;37.99
7018;BME280;3549;42.162;24.726;2022-09-09T12:19:41;99041.16;;;31.09;37.61
7018;BME280;3549;42.162;24.726;2022-09-09T12:22:20;99273.63;;;33.25;36.63
7018;BME280;3549;42.162;24.726;2022-09-09T12:28:22;99238.78;;;31.57;39.41
7018;BME280;3549;42.162;24.726;2022-09-09T12:31:19;99049.50;;;30.38;39.67
7018;BME280;3549;42.162;24.726;2022-09-09T12:33:45;99255.25;;;31.18;40.26
7018;BME280;3549;42.162;24.726;2022-09-09T12:36:23;99252.59;;;31.20;40.46
7018;BME280;3549;42.162;24.726;2022-09-09T12:38:50;99054.78;;;30.15;40.04
7018;BME280;3549;42.162;24.726;2022-09-09T12:41:24;99255.53;;;31.12;40.05
7018;BME280;3549;42.162;24.726;2022-09-09T12:43:51;99247.97;;;31.05;40.12
7018;BME280;3549;42.162;24.726;2022-09-09T12:46:43;99243.63;;;30.83;40.80
7018;BME280;3549;42.162;24.726;2022-09-09T12:49:39;99238.56;;;31.01;40.60
7018;BME280;3549;42.162;24.726;2022-09-09T12:52:11;99233.88;;;30.87;40.36
7018;BME280;3549;42.162;24.726;2022-09-09T12:54:44;99241.47;;;31.15;40.44
7018;BME280;3549;42.162;24.726;2022-09-09T12:57:12;99234.84;;;31.06;40.36
7018;BME280;3549;42.162;24.726;2022-09-09T12:59:43;99229.41;;;31.11;40.58
7018;BME280;3549;42.162;24.726;2022-09-09T13:02:21;99223.94;;;31.37;40.15
7018;BME280;3549;42.162;24.726;2022-09-09T13:04:48;99193.22;;;31.40;39.66
7018;BME280;3549;42.162;24.726;2022-09-09T13:07:16;99195.63;;;31.65;39.86
7018;BME280;3549;42.162;24.726;2022-09-09T13:09:46;99223.88;;;31.59;40.24
7018;BME280;3549;42.162;24.726;2022-09-09T13:12:17;99206.00;;;31.08;40.55
7018;BME280;3549;42.162;24.726;2022-09-09T13:14:46;99151.00;;;30.47;40.80
7018;BME280;3549;42.162;24.726;2022-09-09T13:17:21;99146.50;;;31.13;40.20
7018;BME280;3549;42.162;24.726;2022-09-09T13:19:48;99202.44;;;32.80;38.49
7018;BME280;3549;42.162;24.726;2022-09-09T13:22:37;99208.50;;;33.49;36.77
7018;BME280;3549;42.162;24.726;2022-09-09T13:25:27;99214.53;;;33.83;35.73
7018;BME280;3549;42.162;24.726;2022-09-09T13:28:03;99210.47;;;33.28;36.41
7018;BME280;3549;42.162;24.726;2022-09-09T13:30:30;99206.91;;;32.60;38.15
7018;BME280;3549;42.162;24.726;2022-09-09T13:35:29;98943.53;;;30.51;38.89
7018;BME280;3549;42.162;24.726;2022-09-09T13:37:55;99175.19;;;31.73;39.37
7018;BME280;3549;42.162;24.726;2022-09-09T13:40:22;99184.44;;;32.72;37.96
7018;BME280;3549;42.162;24.726;2022-09-09T13:42:51;99183.50;;;33.90;35.90
7018;BME280;3549;42.162;24.726;2022-09-09T13:45:20;99034.25;;;32.86;36.02
7018;BME280;3549;42.162;24.726;2022-09-09T13:47:46;99176.34;;;33.28;36.74
7018;BME280;3549;42.162;24.726;2022-09-09T13:52:45;98992.44;;;31.44;37.94
7018;BME280;3549;42.162;24.726;2022-09-09T13:55:10;99067.59;;;31.96;38.24
7018;BME280;3549;42.162;24.726;2022-09-09T13:57:36;99172.28;;;33.05;37.47
7018;BME280;3549;42.162;24.726;2022-09-09T14:00:02;99164.94;;;33.29;37.15
7018;BME280;3549;42.162;24.726;2022-09-09T14:02:27;98992.56;;;32.97;36.21
7018;BME280;3549;42.162;24.726;2022-09-09T14:04:53;99051.47;;;34.02;35.17
7018;BME280;3549;42.162;24.726;2022-09-09T14:07:21;99150.19;;;32.92;36.41
7018;BME280;3549;42.162;24.726;2022-09-09T14:09:46;99158.88;;;32.77;37.33
7018;BME280;3549;42.162;24.726;2022-09-09T14:12:15;99167.81;;;32.37;38.66
7018;BME280;3549;42.162;24.726;2022-09-09T14:14:41;99098.16;;;31.40;39.02
7018;BME280;3549;42.162;24.726;2022-09-09T14:17:08;99011.50;;;30.51;40.29
7018;BME280;3549;42.162;24.726;2022-09-09T14:19:34;99171.91;;;31.29;41.31
7018;BME280;3549;42.162;24.726;2022-09-09T14:22:00;99162.28;;;30.69;43.28
7018;BME280;3549;42.162;24.726;2022-09-09T14:24:26;99115.22;;;30.06;44.15
7018;BME280;3549;42.162;24.726;2022-09-09T14:26:53;98987.75;;;29.29;43.15
7018;BME280;3549;42.162;24.726;2022-09-09T14:29:18;98660.13;;;27.03;43.12
7018;BME280;3549;42.162;24.726;2022-09-09T14:31:43;99101.53;;;29.77;42.94
7018;BME280;3549;42.162;24.726;2022-09-09T14:34:09;98980.31;;;29.63;42.95
7018;BME280;3549;42.162;24.726;2022-09-09T14:36:36;99016.31;;;30.40;41.56
7018;BME280;3549;42.162;24.726;2022-09-09T14:39:02;99145.78;;;30.47;42.35
7018;BME280;3549;42.162;24.726;2022-09-09T14:41:27;99158.31;;;30.39;42.97
7018;BME280;3549;42.162;24.726;2022-09-09T14:43:54;99162.00;;;30.12;43.61
7018;BME280;3549;42.162;24.726;2022-09-09T14:46:20;99157.47;;;29.70;44.62
7018;BME280;3549;42.162;24.726;2022-09-09T14:48:46;99154.59;;;29.55;44.77
7018;BME280;3549;42.162;24.726;2022-09-09T14:51:19;99136.38;;;29.76;44.42
7018;BME280;3549;42.162;24.726;2022-09-09T14:53:46;99121.56;;;29.54;44.85
7018;BME280;3549;42.162;24.726;2022-09-09T14:56:17;99077.50;;;28.98;45.80
7018;BME280;3549;42.162;24.726;2022-09-09T14:58:43;98904.47;;;27.56;46.83
7018;BME280;3549;42.162;24.726;2022-09-09T15:01:14;99146.94;;;29.01;47.37
7018;BME280;3549;42.162;24.726;2022-09-09T15:03:41;99049.63;;;28.26;47.51
7018;BME280;3549;42.162;24.726;2022-09-09T15:06:07;99140.84;;;28.77;47.15
7018;BME280;3549;42.162;24.726;2022-09-09T15:08:35;99062.38;;;28.07;48.28
7018;BME280;3549;42.162;24.726;2022-09-09T15:11:02;98989.56;;;27.52;48.49
7018;BME280;3549;42.162;24.726;2022-09-09T15:13:28;99141.81;;;28.47;48.13
7018;BME280;3549;42.162;24.726;2022-09-09T15:15:53;99141.22;;;28.39;48.94
7018;BME280;3549;42.162;24.726;2022-09-09T15:18:20;98985.94;;;27.58;48.57
7018;BME280;3549;42.162;24.726;2022-09-09T15:20:46;98982.50;;;27.56;48.76
7018;BME280;3549;42.162;24.726;2022-09-09T15:23:13;99015.88;;;27.41;49.42
7018;BME280;3549;42.162;24.726;2022-09-09T15:25:49;99136.31;;;28.30;49.04
7018;BME280;3549;42.162;24.726;2022-09-09T15:28:15;99140.78;;;28.26;49.04
7018;BME280;3549;42.162;24.726;2022-09-09T15:30:41;99137.59;;;28.17;49.30
7018;BME280;3549;42.162;24.726;2022-09-09T15:33:09;98928.59;;;27.05;49.04
7018;BME280;3549;42.162;24.726;2022-09-09T15:35:34;98890.28;;;26.53;50.00